Latest Weather Observations for Coolangatta

IDN60801

Issued at 6:23 pm EDT Thursday 20 January 2022 (issued every 10 minutes, with the page automatically refreshed every 10 minutes)

About weather observations | Map of weather stations | Latest weather observations for NSW | Other Formats
Station Details ID: 040717 Name: COOLANGATTA Lat: -28.17 Lon: 153.51 Height: 4.0 m
Data from the previous 72 hours. | See also: Recent months at Coolangatta

Observations at Coolangatta are collected in the Queensland time zone, which does not include daylight savings during the summer period. Therefore 'Rain since 9am' totals and other values are based on the Queensland time zone.

Date/Time
EDT
Temp
°C
App
Temp
°C
Dew
Point
°C
Rel
Hum
%
Delta-T
°C
Wind Press
QNH
hPa
Press
MSL
hPa
Rain since
9am
mm
Dir  Spd
km/h
Gust
km/h
Spd
kts
Gust
kts
20/06:12pm 22.4 22.8 21.0 92 0.9 SSE 20 28 11 15 1017.6 1017.5 14.0
20/06:00pm 21.7 20.4 20.7 94 0.6 SSE 28 52 15 28 1017.5 1017.4 13.8
20/05:56pm 21.6 19.9 20.6 94 0.6 SSE 30 52 16 28 1017.6 1017.5 13.8
20/05:52pm 21.6 20.6 20.4 93 0.8 SSE 26 52 14 28 1017.7 1017.6 13.2
20/05:51pm 21.7 21.0 20.3 92 0.9 SSE 24 52 13 28 1017.7 1017.6 12.8
20/05:38pm 22.0 22.2 20.5 91 1.0 SSE 20 32 11 17 1017.4 1017.3 12.0
20/05:30pm 21.9 20.4 20.2 90 1.1 SSE 28 41 15 22 1017.5 1017.4 12.0
20/05:27pm 22.0 20.4 20.1 89 1.2 SSE 28 39 15 21 1017.4 1017.3 12.0
20/05:00pm 22.8 23.3 20.0 84 1.8 S 17 24 9 13 1017.0 1016.9 11.2
20/04:30pm 23.6 23.7 20.3 82 2.1 SSE 20 32 11 17 1017.2 1017.1 11.0
20/04:00pm 24.7 23.5 20.8 79 2.6 SE 28 43 15 23 1016.9 1016.8 10.8
20/03:30pm 25.0 24.4 21.3 80 2.4 SE 26 39 14 21 1016.8 1016.7 10.8
20/03:24pm 25.2 25.6 22.5 85 1.8 SSE 24 37 13 20 1016.8 1016.7 10.8
20/03:00pm 23.6 24.5 22.0 91 1.1 SSE 20 30 11 16 1017.0 1016.9 10.8
20/02:37pm 22.8 23.2 21.8 94 0.7 S 22 35 12 19 1017.0 1016.9 10.8
20/02:30pm 22.8 23.0 22.0 95 0.5 SSE 24 32 13 17 1016.9 1016.8 10.4
20/02:17pm 22.5 22.5 21.7 95 0.5 SSW 24 43 13 23 1016.7 1016.6 9.8
20/02:00pm 23.0 23.7 21.5 91 1.0 SSW 20 30 11 16 1016.5 1016.4 2.6
20/01:59pm 23.1 23.8 21.5 91 1.1 SSW 20 28 11 15 1016.5 1016.4 2.6
20/01:30pm 25.4 27.0 22.1 82 2.2 SSW 17 24 9 13 1016.3 1016.2 1.6
20/01:00pm 24.5 25.2 21.6 84 1.9 SSW 20 30 11 16 1016.5 1016.4 1.6
20/12:30pm 25.0 26.7 22.3 85 1.8 SSW 17 26 9 14 1016.6 1016.5 1.6
20/12:00pm 23.1 24.8 21.7 92 0.9 SSW 15 22 8 12 1016.9 1016.8 1.6
20/11:30am 22.2 22.5 20.7 91 1.0 SSW 20 32 11 17 1016.9 1016.8 1.2
20/11:00am 22.1 22.9 20.6 91 1.0 SSW 17 24 9 13 1016.8 1016.7 1.2
20/10:30am 21.7 22.0 20.5 93 0.8 SSW 19 30 10 16 1016.6 1016.5 1.0
20/10:00am 21.6 22.6 20.2 92 0.9 SSW 15 24 8 13 1016.3 1016.2 38.2
20/09:52am 21.5 22.2 20.5 94 0.6 SSW 17 24 9 13 1016.3 1016.2 38.0
20/09:37am 21.5 21.3 20.5 94 0.6 SSW 22 32 12 17 1016.1 1016.0 37.6
20/09:30am 21.7 21.7 20.9 95 0.5 S 22 32 12 17 1016.2 1016.1 36.8
20/09:00am 22.1 22.3 21.3 95 0.5 SSW 22 35 12 19 1015.7 1015.6 35.6
20/08:42am 22.1 23.0 21.6 97 0.3 SSW 19 28 10 15 1015.7 1015.6 35.4
20/08:30am 22.0 22.9 21.5 97 0.3 SSW 19 32 10 17 1015.7 1015.6 34.8
20/08:05am 21.7 22.8 21.2 97 0.3 SSW 17 28 9 15 1015.6 1015.5 31.0
20/08:03am 21.8 23.3 21.3 97 0.3 SSW 15 28 8 15 1015.6 1015.5 30.6
20/08:00am 21.8 23.3 21.3 97 0.3 SSW 15 20 8 11 1015.6 1015.5 30.2
20/07:30am 21.6 22.5 20.9 96 0.5 S 17 26 9 14 1015.7 1015.6 28.2
20/07:00am 21.5 22.4 20.8 96 0.5 S 17 28 9 15 1015.4 1015.3 26.6
20/06:43am 21.5 22.5 21.0 97 0.3 SSW 17 28 9 15 1015.2 1015.1 25.6
20/06:33am 21.5 21.9 21.0 97 0.3 S 20 33 11 18 1015.2 1015.1 24.6
20/06:32am 21.5 21.9 21.0 97 0.3 S 20 33 11 18 1015.2 1015.1 24.0
20/06:30am 21.6 21.7 21.1 97 0.3 S 22 33 12 18 1015.2 1015.1 22.8
20/06:13am 21.8 22.4 21.1 96 0.5 S 19 28 10 15 1015.1 1015.0 19.4
20/06:12am 21.9 22.6 21.2 96 0.5 S 19 28 10 15 1015.0 1014.9 19.4
20/06:08am 21.9 22.4 21.2 96 0.5 S 20 30 11 16 1014.9 1014.8 19.0
20/06:06am 22.0 22.5 21.2 95 0.5 S 20 30 11 16 1014.9 1014.8 18.6
20/06:00am 22.1 22.9 21.3 95 0.5 S 19 28 10 15 1014.8 1014.7 18.2
20/05:53am 22.1 23.2 21.3 95 0.5 S 17 26 9 14 1014.7 1014.6 18.0
20/05:50am 22.1 23.1 21.1 94 0.7 S 17 26 9 14 1014.7 1014.6 18.0
20/05:30am 22.1 24.4 21.3 95 0.5 SSW 11 13 6 7 1014.2 1014.1 16.8
20/05:04am 22.1 24.4 21.4 96 0.5 SSW 11 15 6 8 1014.1 1014.0 16.8
20/05:00am 22.1 24.4 21.4 96 0.5 S 11 15 6 8 1014.1 1014.0 16.8
20/04:52am 22.1 24.0 21.4 96 0.5 S 13 17 7 9 1014.0 1013.9 16.8
20/04:30am 22.2 24.3 21.7 97 0.3 SSE 13 19 7 10 1013.9 1013.8 16.4
20/04:27am 22.2 24.7 21.7 97 0.3 SSE 11 19 6 10 1013.9 1013.8 15.2
20/04:22am 22.2 24.6 21.5 96 0.5 S 11 17 6 9 1014.0 1013.9 14.4
20/04:16am 22.2 24.6 21.5 96 0.5 S 11 15 6 8 1013.9 1013.8 14.0
20/04:06am 22.3 24.3 21.6 96 0.5 SSE 13 20 7 11 1014.0 1013.9 13.8
20/04:02am 22.3 24.0 21.6 96 0.5 SSE 15 20 8 11 1014.0 1013.9 13.8
20/04:00am 22.2 23.8 21.5 96 0.5 SSE 15 20 8 11 1014.0 1013.9 13.8
20/03:51am 22.1 24.0 21.4 96 0.5 S 13 20 7 11 1013.9 1013.8 13.8
20/03:36am 22.0 24.3 21.3 96 0.5 S 11 17 6 9 1013.9 1013.8 13.0
20/03:30am 22.0 24.0 21.5 97 0.3 S 13 20 7 11 1013.9 1013.8 13.0
20/03:21am 22.0 23.6 21.5 97 0.3 S 15 22 8 12 1014.0 1013.9 13.0
20/03:06am 21.9 23.8 21.4 97 0.3 S 13 20 7 11 1014.1 1014.0 12.8
20/03:00am 21.9 23.4 21.2 96 0.5 SSW 15 22 8 12 1014.2 1014.1 12.8
20/02:43am 21.9 23.5 21.4 97 0.3 S 15 22 8 12 1014.3 1014.2 12.6
20/02:40am 21.9 23.5 21.4 97 0.3 S 15 22 8 12 1014.4 1014.3 12.2
20/02:39am 21.9 23.4 21.2 96 0.5 S 15 22 8 12 1014.4 1014.3 12.2
20/02:30am 21.9 22.6 21.2 96 0.5 S 19 26 10 14 1014.5 1014.4 12.2
20/02:02am 21.9 22.5 21.4 97 0.3 SSE 20 28 11 15 1014.7 1014.6 11.0
20/02:00am 22.0 22.7 21.5 97 0.3 SSE 20 28 11 15 1014.7 1014.6 11.0
20/01:30am 21.9 23.1 21.4 97 0.3 SSE 17 24 9 13 1015.0 1014.9 6.0
20/01:27am 22.0 23.2 21.5 97 0.3 SSE 17 24 9 13 1015.0 1014.9 5.8
20/01:00am 21.9 23.3 21.1 95 0.5 SSE 15 20 8 11 1014.9 1014.8 4.6
20/12:35am 22.5 23.2 21.5 94 0.7 S 20 30 11 16 1014.9 1014.8 3.2
20/12:30am 22.6 23.1 21.2 92 0.9 SSW 20 28 11 15 1014.6 1014.5 2.4
20/12:07am 22.9 23.5 21.0 89 1.2 S 19 30 10 16 1014.6 1014.5 2.4
20/12:00am 22.9 23.9 21.0 89 1.2 S 17 26 9 14 1014.6 1014.5 2.4
 
Date/Time
EDT
Temp
°C
App
Temp
°C
Dew
Point
°C
Rel
Hum
%
Delta-T
°C
Wind Press
QNH
hPa
Press
MSL
hPa
Rain since
9am
mm
Dir  Spd
km/h
Gust
km/h
Spd
kts
Gust
kts
19/11:30pm 22.9 23.8 20.8 88 1.4 SSW 17 26 9 14 1014.3 1014.2 2.4
19/11:16pm 22.9 23.9 21.0 89 1.2 SSW 17 24 9 13 1014.1 1014.0 2.4
19/11:00pm 22.9 24.4 21.2 90 1.1 SSW 15 22 8 12 1014.6 1014.5 2.4
19/10:56pm 22.9 24.0 21.2 90 1.1 SSW 17 22 9 12 1014.5 1014.4 2.4
19/10:30pm 23.5 25.0 20.6 84 1.9 S 13 19 7 10 1014.5 1014.4 2.4
19/10:00pm 23.4 25.1 20.9 86 1.6 S 13 19 7 10 1014.2 1014.1 2.4
19/09:30pm 23.5 24.9 21.0 86 1.6 S 15 20 8 11 1013.9 1013.8 2.4
19/09:00pm 23.5 25.4 21.4 88 1.4 S 13 19 7 10 1013.9 1013.8 2.2
19/08:30pm 23.5 24.3 21.4 88 1.4 S 19 26 10 14 1013.5 1013.4 2.2
19/08:00pm 23.4 23.3 21.5 89 1.3 SSW 24 39 13 21 1013.3 1013.2 2.2
19/07:30pm 24.2 24.9 21.5 85 1.8 SE 20 41 11 22 1012.8 1012.7 2.2
19/07:23pm 25.0 26.5 21.3 80 2.4 E 15 30 8 16 1012.6 1012.5 2.2
19/07:05pm 24.2 24.2 20.9 82 2.2 ESE 22 33 12 18 1012.4 1012.3 2.2
19/07:00pm 25.8 26.7 21.9 79 2.6 SE 20 32 11 17 1012.3 1012.2 0.0
19/06:30pm 27.3 27.6 20.4 66 4.5 SE 19 24 10 13 1011.9 1011.8 0.0
19/06:00pm 28.0 28.6 20.3 63 5.1 SE 17 20 9 11 1011.6 1011.5 0.0
19/05:30pm 28.2 29.1 20.0 61 5.4 ESE 15 20 8 11 1011.4 1011.3 0.0
19/05:00pm 27.9 28.7 20.7 65 4.8 ESE 17 22 9 12 1011.3 1011.2 0.0
19/04:30pm 27.7 30.1 21.5 69 4.1 NE 11 15 6 8 1011.4 1011.3 0.0
19/04:00pm 27.9 30.4 22.4 72 3.7 ENE 13 17 7 9 1011.6 1011.5 0.0
19/03:30pm 27.1 28.7 21.4 71 3.8 NE 15 20 8 11 1011.7 1011.6 0.0
19/03:00pm 27.8 29.1 21.6 69 4.1 NE 17 20 9 11 1011.7 1011.6 0.0
19/02:30pm 28.4 29.2 21.4 66 4.7 ENE 19 24 10 13 1011.8 1011.7 0.0
19/02:00pm 28.0 28.7 22.2 70 3.9 ENE 22 30 12 16 1011.9 1011.8 0.0
19/01:30pm 28.0 28.9 22.7 73 3.6 ENE 22 30 12 16 1011.9 1011.8 0.0
19/01:00pm 27.8 27.6 22.7 74 3.5 ENE 28 33 15 18 1011.9 1011.8 0.0
19/12:30pm 28.6 29.6 23.5 74 3.5 ENE 24 30 13 16 1012.2 1012.1 0.0
19/12:00pm 28.9 30.1 22.2 67 4.5 NE 19 26 10 14 1012.3 1012.2 0.0
19/11:30am 28.7 30.4 23.4 73 3.6 NNE 20 24 11 13 1012.3 1012.2 0.0
19/11:00am 28.5 29.6 21.3 65 4.8 NE 17 20 9 11 1012.3 1012.2 0.0
19/10:30am 27.9 29.2 21.7 69 4.2 NE 17 19 9 10 1012.4 1012.3 0.0
19/10:00am 28.5 30.9 20.8 63 5.1 NNW 9 15 5 8 1012.4 1012.3 5.4
19/09:30am 27.8 30.1 21.3 67 4.3 WNW 11 17 6 9 1012.5 1012.4 5.4
19/09:00am 27.4 30.0 21.9 72 3.7 WNW 11 17 6 9 1012.5 1012.4 5.4
19/08:30am 26.1 29.6 22.2 79 2.6 SW 7 9 4 5 1012.3 1012.2 5.4
19/08:00am 24.2 28.3 22.3 89 1.3 WSW 4 9 2 5 1012.1 1012.0 5.4
19/07:30am 23.4 28.3 22.4 94 0.7 CALM 0 6 0 3 1011.7 1011.6 5.4
19/07:00am 22.7 27.4 22.0 96 0.5 CALM 0 0 0 0 1011.3 1011.2 5.4
19/06:30am 22.3 25.8 21.8 97 0.3 WSW 6 9 3 5 1011.1 1011.0 5.4
19/06:00am 21.8 24.9 21.1 96 0.5 WSW 6 7 3 4 1010.6 1010.5 5.4
19/05:30am 21.9 24.6 21.4 97 0.3 WSW 9 13 5 7 1010.1 1010.0 5.4
19/05:00am 21.9 26.2 21.2 96 0.5 CALM 0 6 0 3 1010.0 1009.9 5.4
19/04:30am 22.2 25.5 21.5 96 0.5 WSW 6 9 3 5 1009.9 1009.8 5.4
19/04:00am 22.3 25.6 21.5 95 0.5 WSW 6 9 3 5 1009.6 1009.5 5.4
19/03:30am 22.7 27.4 21.9 95 0.5 CALM 0 2 0 1 1009.7 1009.6 5.4
19/03:00am 22.7 27.4 22.0 96 0.5 CALM 0 4 0 2 1010.1 1010.0 5.4
19/02:30am 22.7 25.7 22.0 96 0.5 W 9 11 5 6 1010.4 1010.3 5.4
19/02:00am 22.7 26.1 21.7 94 0.7 WNW 6 7 3 4 1010.6 1010.5 5.4
19/01:30am 22.9 26.4 21.9 94 0.7 WNW 6 7 3 4 1011.0 1010.9 5.4
19/01:00am 23.2 26.8 22.0 93 0.8 NW 6 7 3 4 1011.2 1011.1 5.4
19/12:30am 23.4 27.4 22.0 92 0.9 NW 4 7 2 4 1011.6 1011.5 5.4
19/12:00am 23.8 28.6 22.2 91 1.1 CALM 0 0 0 0 1011.9 1011.8 5.4
 
Date/Time
EDT
Temp
°C
App
Temp
°C
Dew
Point
°C
Rel
Hum
%
Delta-T
°C
Wind Press
QNH
hPa
Press
MSL
hPa
Rain since
9am
mm
Dir  Spd
km/h
Gust
km/h
Spd
kts
Gust
kts
18/11:30pm 24.0 27.7 22.3 90 1.1 NW 6 6 3 3 1012.2 1012.1 5.4
18/11:00pm 24.0 28.0 22.1 89 1.3 NW 4 7 2 4 1012.3 1012.2 5.4
18/10:30pm 24.2 28.3 22.3 89 1.3 NNW 4 6 2 3 1012.3 1012.2 5.4
18/10:00pm 24.4 28.0 22.1 87 1.5 NNW 6 7 3 4 1012.1 1012.0 5.4
18/09:30pm 24.8 28.2 21.7 83 2.1 N 6 9 3 5 1011.8 1011.7 5.4
18/09:00pm 25.4 28.6 21.7 80 2.5 N 7 11 4 6 1011.5 1011.4 5.4
18/08:30pm 25.5 28.3 21.6 79 2.6 N 9 13 5 7 1011.2 1011.1 5.4
18/08:00pm 25.6 28.4 21.5 78 2.7 N 9 13 5 7 1010.9 1010.8 5.4
18/07:30pm 25.8 28.2 21.5 77 2.9 NNE 11 15 6 8 1010.5 1010.4 5.4
18/07:00pm 26.1 28.5 21.5 76 3.1 NNE 11 17 6 9 1010.3 1010.2 5.4
18/06:30pm 26.2 28.1 21.4 75 3.2 NE 13 17 7 9 1009.9 1009.8 5.4
18/06:00pm 26.3 27.7 21.1 73 3.4 NNE 15 17 8 9 1009.8 1009.7 5.4
18/05:30pm 26.3 27.3 21.1 73 3.4 NNE 17 20 9 11 1009.5 1009.4 5.4
18/05:00pm 27.0 27.9 21.5 72 3.7 NNE 19 22 10 12 1009.8 1009.7 5.4
18/04:30pm 27.0 27.6 21.1 70 3.9 NNE 19 22 10 12 1009.9 1009.8 5.4
18/04:00pm 27.5 28.4 21.5 70 4.0 NNE 19 24 10 13 1010.3 1010.2 5.4
18/03:30pm 28.2 29.3 22.4 71 3.9 NNE 20 24 11 13 1010.5 1010.4 5.4
18/03:00pm 28.0 28.8 21.8 69 4.2 NE 20 26 11 14 1010.8 1010.7 5.4
18/02:30pm 27.9 28.7 21.4 67 4.3 NNE 19 24 10 13 1011.1 1011.0 5.4
18/02:00pm 27.9 28.8 21.9 70 4.0 NE 20 28 11 15 1011.2 1011.1 5.4
18/01:30pm 27.9 28.9 22.2 71 3.8 NE 20 26 11 14 1011.6 1011.5 5.4
18/01:00pm 27.4 28.5 21.9 72 3.7 NE 19 24 10 13 1011.9 1011.8 5.4
18/12:30pm 27.7 28.8 22.4 73 3.6 NE 20 26 11 14 1012.3 1012.2 5.4
18/12:00pm 27.1 28.1 21.8 73 3.5 NE 19 24 10 13 1012.7 1012.6 5.4
18/11:30am 25.7 28.3 22.6 83 2.1 NE 13 19 7 10 1013.2 1013.1 5.2
18/11:00am 25.2 27.1 22.7 86 1.7 N 17 24 9 13 1012.7 1012.6 4.8
18/10:40am 24.8 28.0 23.0 90 1.2 NNW 11 17 6 9 1012.8 1012.7 4.8
18/10:30am 24.3 26.6 22.7 91 1.1 NW 15 19 8 10 1012.7 1012.6 4.8
18/10:13am 23.9 27.3 22.7 93 0.8 SW 9 13 5 7 1012.9 1012.8 1.2
18/10:00am 24.1 27.4 22.5 91 1.1 WNW 9 13 5 7 1012.7 1012.6 3.4
18/09:48am 24.2 28.5 22.6 91 1.1 S 4 9 2 5 1012.6 1012.5 3.4
18/09:30am 23.8 27.5 22.2 91 1.1 S 6 15 3 8 1012.6 1012.5 3.0
18/09:00am 24.0 27.2 22.3 90 1.1 E 9 15 5 8 1012.5 1012.4 0.2
18/08:46am 24.4 28.1 23.2 93 0.8 SE 9 13 5 7 1012.4 1012.3 0.0
18/08:30am 24.5 28.3 22.8 90 1.1 SSW 7 11 4 6 1012.2 1012.1 0.0
18/08:00am 23.8 29.0 22.8 94 0.7 CALM 0 0 0 0 1012.0 1011.9 0.0
18/07:30am 23.1 28.0 22.3 95 0.5 CALM 0 0 0 0 1011.8 1011.7 0.0
18/07:00am 22.8 27.6 22.1 96 0.5 CALM 0 0 0 0 1011.6 1011.5 0.0
18/06:30am 22.3 26.8 21.5 95 0.5 CALM 0 0 0 0 1011.5 1011.4 0.0
18/06:00am 22.5 25.4 21.8 96 0.5 WSW 9 11 5 6 1011.2 1011.1 0.0
18/05:30am 22.4 25.8 21.6 95 0.5 WNW 6 9 3 5 1011.0 1010.9 0.0
18/05:00am 22.5 27.0 21.5 94 0.7 CALM 0 0 0 0 1010.8 1010.7 0.0
18/04:30am 22.4 26.7 21.2 93 0.8 CALM 0 0 0 0 1010.7 1010.6 0.0
18/04:00am 22.9 27.5 21.7 93 0.8 CALM 0 0 0 0 1010.7 1010.6 0.0
18/03:30am 23.0 26.6 22.0 94 0.7 WNW 6 9 3 5 1010.8 1010.7 0.0
18/03:00am 23.7 26.5 22.3 92 0.9 NW 11 17 6 9 1011.0 1010.9 0.0
18/02:30am 23.3 26.5 21.7 91 1.1 NW 7 7 4 4 1011.1 1011.0 0.0
18/02:00am 23.7 27.0 21.8 89 1.3 NW 7 9 4 5 1011.4 1011.3 0.0
18/01:30am 24.2 27.8 22.3 89 1.3 NNW 7 11 4 6 1011.5 1011.4 0.0
18/01:00am 24.5 27.7 22.4 88 1.4 N 9 9 5 5 1011.6 1011.5 0.0
18/12:30am 24.8 28.0 22.3 86 1.7 N 9 11 5 6 1012.1 1012.0 0.0
18/12:00am 25.0 28.2 22.3 85 1.8 NNW 9 13 5 7 1012.5 1012.4 0.0
 
Date/Time
EDT
Temp
°C
App
Temp
°C
Dew
Point
°C
Rel
Hum
%
Delta-T
°C
Wind Press
QNH
hPa
Press
MSL
hPa
Rain since
9am
mm
Dir  Spd
km/h
Gust
km/h
Spd
kts
Gust
kts
17/11:30pm 25.5 28.2 22.2 82 2.2 N 11 15 6 8 1012.6 1012.5 0.0
17/11:00pm 25.9 27.9 22.2 80 2.5 N 15 19 8 10 1012.6 1012.5 0.0
17/10:30pm 25.9 28.4 22.4 81 2.4 N 13 17 7 9 1012.5 1012.4 0.0
17/10:00pm 26.0 28.1 22.5 81 2.4 NNE 15 17 8 9 1012.4 1012.3 0.0
17/09:30pm 26.0 27.8 21.9 78 2.7 N 15 19 8 10 1012.1 1012.0 0.0
17/09:00pm 25.9 27.4 22.0 79 2.6 N 17 20 9 11 1011.6 1011.5 0.0
17/08:30pm 25.9 27.9 22.2 80 2.5 N 15 20 8 11 1011.3 1011.2 0.0
17/08:00pm 26.1 27.7 22.2 79 2.6 NNE 17 20 9 11 1011.2 1011.1 0.0
17/07:30pm 26.2 27.9 22.3 79 2.6 NNE 17 22 9 12 1011.0 1010.9 0.0

Other formats

Comma delimited format used in spreadsheet applications
http://www.bom.gov.au/fwo/IDN60801/IDN60801.94592.axf

JavaScript Object Notation format (JSON) in row-major order
http://www.bom.gov.au/fwo/IDN60801/IDN60801.94592.json

Data quality

Most of these data are generated automatically and are frequently updated. Quality checks on data are not normally performed. It is possible for incorrect values to appear. Refer to information at About Latest Weather Observations and please check the disclaimer before using these data.